Inversion Research: Below Escarpment

*Note: All times are displayed in the local standard time of the station location.
**Rain - Equipment is designed to accurately record liquid precipitation; under conditions when precipitation is not in liquid form, the data displayed may not properly reflect rainfall values.

Date Max Temp
(°C)
Min Temp
(°C)
Avg Temp
(°C)
Rain (mm) Avg RH (%)
Mon, Aug 20, 2018 27.1 15.3 21.7 - 91.3
Sun, Aug 19, 2018 25.0 14.9 20.0 - 92.2
Sat, Aug 18, 2018 23.6 17.1 21.0 - 92.5
Fri, Aug 17, 2018 29.8 22.3 24.6 - 94.6
Thu, Aug 16, 2018 31.2 18.8 25.5 - 83.6
Wed, Aug 15, 2018 32.1 20.2 25.8 - 78.6
Tue, Aug 14, 2018 30.6 20.3 24.3 - 81.9
DateTime Avg Temp (°C) Rain (mm) RH (%)
Tue, Aug 21, 2018 06:00 20.5 - 100.0
Tue, Aug 21, 2018 05:00 19.9 - 100.0
Tue, Aug 21, 2018 04:00 19.6 - 100.0
Tue, Aug 21, 2018 03:00 19.9 - 100.0
Tue, Aug 21, 2018 02:00 20.8 - 99.0
Tue, Aug 21, 2018 01:00 21.4 - 95.3
Tue, Aug 21, 2018 00:00 21.2 - 95.3
Mon, Aug 20, 2018 23:00 20.9 - 99.5
Mon, Aug 20, 2018 22:00 21.3 - 100.0
Mon, Aug 20, 2018 21:00 22.0 - 97.8
Mon, Aug 20, 2018 20:00 24.0 - 89.0
Mon, Aug 20, 2018 19:00 25.7 - 77.3
Mon, Aug 20, 2018 18:00 26.7 - 76.3
Mon, Aug 20, 2018 17:00 25.3 - 88.0
Mon, Aug 20, 2018 16:00 25.6 - 85.0
Mon, Aug 20, 2018 15:00 25.5 - 83.3
Mon, Aug 20, 2018 14:00 25.8 - 80.0
Mon, Aug 20, 2018 13:00 26.3 - 71.3
Mon, Aug 20, 2018 12:00 25.7 - 75.8
Mon, Aug 20, 2018 11:00 24.4 - 83.8
Mon, Aug 20, 2018 10:00 23.1 - 89.0
Mon, Aug 20, 2018 09:00 21.0 - 99.8
Mon, Aug 20, 2018 08:00 19.0 - 100.0
Mon, Aug 20, 2018 07:00 17.2 - 100.0
Mon, Aug 20, 2018 06:00 15.8 - 100.0
Mon, Aug 20, 2018 05:00 16.2 - 100.0
Mon, Aug 20, 2018 04:00 16.8 - 100.0
Mon, Aug 20, 2018 03:00 17.2 - 100.0
Mon, Aug 20, 2018 02:00 17.2 - 100.0
Mon, Aug 20, 2018 01:00 17.7 - 100.0
Mon, Aug 20, 2018 00:00 17.6 - 100.0
Sun, Aug 19, 2018 23:00 18.0 - 100.0
Sun, Aug 19, 2018 22:00 18.8 - 100.0
Sun, Aug 19, 2018 21:00 20.0 - 99.8
Sun, Aug 19, 2018 20:00 21.8 - 90.5
Sun, Aug 19, 2018 19:00 23.2 - 80.3
Sun, Aug 19, 2018 18:00 24.1 - 75.8
Sun, Aug 19, 2018 17:00 24.4 - 76.5
Sun, Aug 19, 2018 16:00 24.7 - 78.3
Sun, Aug 19, 2018 15:00 24.1 - 80.3
Sun, Aug 19, 2018 14:00 24.2 - 79.8
Sun, Aug 19, 2018 13:00 24.5 - 76.5
Sun, Aug 19, 2018 12:00 24.0 - 84.3
Sun, Aug 19, 2018 11:00 23.4 - 90.5
Sun, Aug 19, 2018 10:00 21.6 - 100.0
Sun, Aug 19, 2018 09:00 18.8 - 100.0
Sun, Aug 19, 2018 08:00 16.3 - 100.0
Sun, Aug 19, 2018 07:00 15.0 - 100.0


asterix Register now to access more data! asterix